sensor_id;sensor_type;location;lat;lon;timestamp;P1;durP1;ratioP1;P2;durP2;ratioP2
40669;SDS011;26355;45.528;9.234;2023-03-08T00:00:12;27.70;;;14.10;;
40669;SDS011;26355;45.528;9.234;2023-03-08T00:02:39;27.05;;;14.80;;
40669;SDS011;26355;45.528;9.234;2023-03-08T00:05:05;30.98;;;16.42;;
40669;SDS011;26355;45.528;9.234;2023-03-08T00:07:32;31.05;;;16.35;;
40669;SDS011;26355;45.528;9.234;2023-03-08T00:09:57;30.63;;;15.38;;
40669;SDS011;26355;45.528;9.234;2023-03-08T00:12:23;29.75;;;15.50;;
40669;SDS011;26355;45.528;9.234;2023-03-08T00:14:49;26.77;;;14.45;;
40669;SDS011;26355;45.528;9.234;2023-03-08T00:17:15;27.83;;;15.18;;
40669;SDS011;26355;45.528;9.234;2023-03-08T00:19:41;27.33;;;14.32;;
40669;SDS011;26355;45.528;9.234;2023-03-08T00:22:08;26.88;;;14.77;;
40669;SDS011;26355;45.528;9.234;2023-03-08T00:24:33;27.88;;;15.25;;
40669;SDS011;26355;45.528;9.234;2023-03-08T00:26:59;28.27;;;14.50;;
40669;SDS011;26355;45.528;9.234;2023-03-08T00:29:25;26.55;;;14.95;;
40669;SDS011;26355;45.528;9.234;2023-03-08T00:31:50;27.17;;;15.40;;
40669;SDS011;26355;45.528;9.234;2023-03-08T00:34:16;27.65;;;15.43;;
40669;SDS011;26355;45.528;9.234;2023-03-08T00:36:49;29.88;;;14.77;;
40669;SDS011;26355;45.528;9.234;2023-03-08T00:39:15;29.20;;;14.95;;
40669;SDS011;26355;45.528;9.234;2023-03-08T00:41:41;29.35;;;15.25;;
40669;SDS011;26355;45.528;9.234;2023-03-08T00:44:07;28.25;;;15.18;;
40669;SDS011;26355;45.528;9.234;2023-03-08T00:46:33;28.90;;;15.68;;
40669;SDS011;26355;45.528;9.234;2023-03-08T00:48:58;28.08;;;14.80;;
40669;SDS011;26355;45.528;9.234;2023-03-08T00:51:24;27.42;;;15.32;;
40669;SDS011;26355;45.528;9.234;2023-03-08T00:53:50;27.75;;;15.55;;
40669;SDS011;26355;45.528;9.234;2023-03-08T00:56:16;27.65;;;15.70;;
40669;SDS011;26355;45.528;9.234;2023-03-08T00:58:41;29.13;;;15.55;;
40669;SDS011;26355;45.528;9.234;2023-03-08T01:01:08;27.88;;;16.02;;
40669;SDS011;26355;45.528;9.234;2023-03-08T01:03:38;30.20;;;15.95;;
40669;SDS011;26355;45.528;9.234;2023-03-08T01:06:05;30.35;;;15.82;;
40669;SDS011;26355;45.528;9.234;2023-03-08T01:08:32;25.30;;;14.15;;
40669;SDS011;26355;45.528;9.234;2023-03-08T01:10:58;31.23;;;16.98;;
40669;SDS011;26355;45.528;9.234;2023-03-08T01:13:26;30.40;;;16.23;;
40669;SDS011;26355;45.528;9.234;2023-03-08T01:15:53;31.02;;;16.10;;
40669;SDS011;26355;45.528;9.234;2023-03-08T01:18:19;30.13;;;16.77;;
40669;SDS011;26355;45.528;9.234;2023-03-08T01:20:44;29.20;;;15.40;;
40669;SDS011;26355;45.528;9.234;2023-03-08T01:23:26;30.05;;;15.45;;
40669;SDS011;26355;45.528;9.234;2023-03-08T01:25:59;31.73;;;16.15;;
40669;SDS011;26355;45.528;9.234;2023-03-08T01:28:25;31.23;;;17.00;;
40669;SDS011;26355;45.528;9.234;2023-03-08T01:30:52;28.55;;;15.57;;
40669;SDS011;26355;45.528;9.234;2023-03-08T01:33:17;30.55;;;16.35;;
40669;SDS011;26355;45.528;9.234;2023-03-08T01:35:44;30.80;;;16.50;;
40669;SDS011;26355;45.528;9.234;2023-03-08T01:38:11;31.25;;;15.93;;
40669;SDS011;26355;45.528;9.234;2023-03-08T01:40:36;27.02;;;15.73;;
40669;SDS011;26355;45.528;9.234;2023-03-08T01:46:04;28.67;;;14.93;;
40669;SDS011;26355;45.528;9.234;2023-03-08T01:48:43;30.13;;;16.90;;
40669;SDS011;26355;45.528;9.234;2023-03-08T01:54:37;27.40;;;15.52;;
40669;SDS011;26355;45.528;9.234;2023-03-08T01:57:12;28.02;;;16.60;;
40669;SDS011;26355;45.528;9.234;2023-03-08T01:59:48;30.50;;;16.42;;
40669;SDS011;26355;45.528;9.234;2023-03-08T02:02:21;28.85;;;15.27;;
40669;SDS011;26355;45.528;9.234;2023-03-08T02:04:50;29.88;;;15.93;;
40669;SDS011;26355;45.528;9.234;2023-03-08T02:07:15;30.10;;;15.82;;
40669;SDS011;26355;45.528;9.234;2023-03-08T02:09:41;29.45;;;15.75;;
40669;SDS011;26355;45.528;9.234;2023-03-08T02:12:08;29.45;;;15.35;;
40669;SDS011;26355;45.528;9.234;2023-03-08T02:14:36;33.03;;;16.77;;
40669;SDS011;26355;45.528;9.234;2023-03-08T02:17:02;27.08;;;14.27;;
40669;SDS011;26355;45.528;9.234;2023-03-08T02:19:42;30.92;;;15.68;;
40669;SDS011;26355;45.528;9.234;2023-03-08T02:22:14;30.55;;;15.93;;
40669;SDS011;26355;45.528;9.234;2023-03-08T02:27:08;33.75;;;15.52;;
40669;SDS011;26355;45.528;9.234;2023-03-08T02:29:38;32.75;;;17.23;;
40669;SDS011;26355;45.528;9.234;2023-03-08T02:32:04;27.25;;;15.45;;
40669;SDS011;26355;45.528;9.234;2023-03-08T02:34:29;31.73;;;16.23;;
40669;SDS011;26355;45.528;9.234;2023-03-08T02:36:55;27.60;;;15.77;;
40669;SDS011;26355;45.528;9.234;2023-03-08T02:39:21;30.65;;;16.88;;
40669;SDS011;26355;45.528;9.234;2023-03-08T02:41:46;27.40;;;15.57;;
40669;SDS011;26355;45.528;9.234;2023-03-08T02:44:12;29.42;;;16.13;;
40669;SDS011;26355;45.528;9.234;2023-03-08T02:46:37;33.25;;;16.60;;
40669;SDS011;26355;45.528;9.234;2023-03-08T02:49:03;30.80;;;16.65;;
40669;SDS011;26355;45.528;9.234;2023-03-08T02:51:29;29.65;;;16.30;;
40669;SDS011;26355;45.528;9.234;2023-03-08T02:53:54;30.00;;;16.38;;
40669;SDS011;26355;45.528;9.234;2023-03-08T02:56:20;29.05;;;15.70;;
40669;SDS011;26355;45.528;9.234;2023-03-08T02:58:45;28.52;;;15.05;;
40669;SDS011;26355;45.528;9.234;2023-03-08T03:01:11;30.55;;;15.27;;
40669;SDS011;26355;45.528;9.234;2023-03-08T03:03:37;32.47;;;17.52;;
40669;SDS011;26355;45.528;9.234;2023-03-08T03:06:03;30.48;;;16.45;;
40669;SDS011;26355;45.528;9.234;2023-03-08T03:08:30;28.25;;;15.02;;
40669;SDS011;26355;45.528;9.234;2023-03-08T03:10:55;32.65;;;17.13;;
40669;SDS011;26355;45.528;9.234;2023-03-08T03:13:21;29.55;;;15.55;;
40669;SDS011;26355;45.528;9.234;2023-03-08T03:15:46;29.38;;;16.13;;
40669;SDS011;26355;45.528;9.234;2023-03-08T03:18:12;32.13;;;17.55;;
40669;SDS011;26355;45.528;9.234;2023-03-08T03:20:37;29.98;;;16.48;;
40669;SDS011;26355;45.528;9.234;2023-03-08T03:23:03;33.28;;;15.95;;
40669;SDS011;26355;45.528;9.234;2023-03-08T03:25:30;30.00;;;16.77;;
40669;SDS011;26355;45.528;9.234;2023-03-08T03:27:55;28.55;;;14.95;;
40669;SDS011;26355;45.528;9.234;2023-03-08T03:30:21;26.95;;;15.50;;
40669;SDS011;26355;45.528;9.234;2023-03-08T03:32:47;29.92;;;14.55;;
40669;SDS011;26355;45.528;9.234;2023-03-08T03:35:12;30.83;;;15.48;;
40669;SDS011;26355;45.528;9.234;2023-03-08T03:37:38;29.15;;;15.80;;
40669;SDS011;26355;45.528;9.234;2023-03-08T03:40:04;28.17;;;14.45;;
40669;SDS011;26355;45.528;9.234;2023-03-08T03:42:30;27.23;;;14.88;;
40669;SDS011;26355;45.528;9.234;2023-03-08T03:44:55;28.70;;;14.93;;
40669;SDS011;26355;45.528;9.234;2023-03-08T03:47:21;28.25;;;16.52;;
40669;SDS011;26355;45.528;9.234;2023-03-08T03:49:46;31.75;;;15.10;;
40669;SDS011;26355;45.528;9.234;2023-03-08T03:52:12;28.90;;;15.52;;
40669;SDS011;26355;45.528;9.234;2023-03-08T03:54:37;29.52;;;15.95;;
40669;SDS011;26355;45.528;9.234;2023-03-08T03:57:03;28.83;;;15.27;;
40669;SDS011;26355;45.528;9.234;2023-03-08T03:59:29;32.58;;;15.15;;
40669;SDS011;26355;45.528;9.234;2023-03-08T04:01:54;29.17;;;15.60;;
40669;SDS011;26355;45.528;9.234;2023-03-08T04:04:20;28.33;;;14.75;;
40669;SDS011;26355;45.528;9.234;2023-03-08T04:06:46;26.75;;;14.30;;
40669;SDS011;26355;45.528;9.234;2023-03-08T04:09:13;29.00;;;15.30;;
40669;SDS011;26355;45.528;9.234;2023-03-08T04:11:41;30.10;;;14.82;;
40669;SDS011;26355;45.528;9.234;2023-03-08T04:14:06;27.13;;;15.25;;
40669;SDS011;26355;45.528;9.234;2023-03-08T04:16:33;31.00;;;15.82;;
40669;SDS011;26355;45.528;9.234;2023-03-08T04:19:02;34.50;;;14.70;;
40669;SDS011;26355;45.528;9.234;2023-03-08T04:21:30;29.25;;;14.82;;
40669;SDS011;26355;45.528;9.234;2023-03-08T04:23:56;27.15;;;12.88;;
40669;SDS011;26355;45.528;9.234;2023-03-08T04:26:22;27.17;;;14.00;;
40669;SDS011;26355;45.528;9.234;2023-03-08T04:28:48;24.58;;;12.60;;
40669;SDS011;26355;45.528;9.234;2023-03-08T04:31:15;25.30;;;11.90;;
40669;SDS011;26355;45.528;9.234;2023-03-08T04:33:43;26.33;;;12.80;;
40669;SDS011;26355;45.528;9.234;2023-03-08T04:36:09;25.70;;;13.20;;
40669;SDS011;26355;45.528;9.234;2023-03-08T04:38:35;26.52;;;13.15;;
40669;SDS011;26355;45.528;9.234;2023-03-08T04:41:01;27.50;;;12.48;;
40669;SDS011;26355;45.528;9.234;2023-03-08T04:43:34;26.02;;;12.55;;
40669;SDS011;26355;45.528;9.234;2023-03-08T04:46:00;27.95;;;13.05;;
40669;SDS011;26355;45.528;9.234;2023-03-08T04:48:26;25.63;;;13.25;;
40669;SDS011;26355;45.528;9.234;2023-03-08T04:50:53;27.77;;;13.25;;
40669;SDS011;26355;45.528;9.234;2023-03-08T04:53:20;28.52;;;12.10;;
40669;SDS011;26355;45.528;9.234;2023-03-08T04:55:45;25.98;;;13.27;;
40669;SDS011;26355;45.528;9.234;2023-03-08T04:58:11;27.02;;;12.82;;
40669;SDS011;26355;45.528;9.234;2023-03-08T05:00:56;26.85;;;13.45;;
40669;SDS011;26355;45.528;9.234;2023-03-08T05:03:21;24.80;;;13.32;;
40669;SDS011;26355;45.528;9.234;2023-03-08T05:05:51;27.90;;;13.90;;
40669;SDS011;26355;45.528;9.234;2023-03-08T05:08:18;30.38;;;14.55;;
40669;SDS011;26355;45.528;9.234;2023-03-08T05:10:46;27.23;;;13.25;;
40669;SDS011;26355;45.528;9.234;2023-03-08T05:13:23;25.80;;;13.10;;
40669;SDS011;26355;45.528;9.234;2023-03-08T05:15:50;27.15;;;15.25;;
40669;SDS011;26355;45.528;9.234;2023-03-08T05:18:16;27.85;;;13.10;;
40669;SDS011;26355;45.528;9.234;2023-03-08T05:20:42;30.17;;;13.02;;
40669;SDS011;26355;45.528;9.234;2023-03-08T05:23:08;28.15;;;13.70;;
40669;SDS011;26355;45.528;9.234;2023-03-08T05:25:39;24.13;;;11.88;;
40669;SDS011;26355;45.528;9.234;2023-03-08T05:28:07;24.83;;;13.25;;
40669;SDS011;26355;45.528;9.234;2023-03-08T05:30:33;25.95;;;12.27;;
40669;SDS011;26355;45.528;9.234;2023-03-08T05:32:58;27.65;;;12.63;;
40669;SDS011;26355;45.528;9.234;2023-03-08T05:35:24;25.17;;;11.77;;
40669;SDS011;26355;45.528;9.234;2023-03-08T05:37:50;26.38;;;12.52;;
40669;SDS011;26355;45.528;9.234;2023-03-08T05:40:15;26.33;;;12.63;;
40669;SDS011;26355;45.528;9.234;2023-03-08T05:42:41;27.33;;;12.95;;
40669;SDS011;26355;45.528;9.234;2023-03-08T05:45:07;24.27;;;12.82;;
40669;SDS011;26355;45.528;9.234;2023-03-08T05:47:33;28.67;;;13.95;;
40669;SDS011;26355;45.528;9.234;2023-03-08T05:49:58;28.25;;;12.80;;
40669;SDS011;26355;45.528;9.234;2023-03-08T05:52:24;26.98;;;12.60;;
40669;SDS011;26355;45.528;9.234;2023-03-08T05:54:49;28.25;;;12.65;;
40669;SDS011;26355;45.528;9.234;2023-03-08T05:57:15;25.73;;;12.45;;
40669;SDS011;26355;45.528;9.234;2023-03-08T05:59:41;24.67;;;11.90;;
40669;SDS011;26355;45.528;9.234;2023-03-08T06:02:06;28.60;;;11.98;;
40669;SDS011;26355;45.528;9.234;2023-03-08T06:04:32;29.75;;;12.68;;
40669;SDS011;26355;45.528;9.234;2023-03-08T06:06:57;29.75;;;12.98;;
40669;SDS011;26355;45.528;9.234;2023-03-08T06:09:23;26.60;;;12.02;;
40669;SDS011;26355;45.528;9.234;2023-03-08T06:11:48;27.42;;;12.73;;
40669;SDS011;26355;45.528;9.234;2023-03-08T06:14:14;25.98;;;13.10;;
40669;SDS011;26355;45.528;9.234;2023-03-08T06:16:39;27.50;;;12.27;;
40669;SDS011;26355;45.528;9.234;2023-03-08T06:19:05;27.08;;;12.65;;
40669;SDS011;26355;45.528;9.234;2023-03-08T06:21:31;25.33;;;11.80;;
40669;SDS011;26355;45.528;9.234;2023-03-08T06:23:56;27.70;;;12.38;;
40669;SDS011;26355;45.528;9.234;2023-03-08T06:26:22;27.52;;;11.25;;
40669;SDS011;26355;45.528;9.234;2023-03-08T06:28:47;27.15;;;12.43;;
40669;SDS011;26355;45.528;9.234;2023-03-08T06:31:14;26.67;;;12.60;;
40669;SDS011;26355;45.528;9.234;2023-03-08T06:33:41;28.02;;;12.88;;
40669;SDS011;26355;45.528;9.234;2023-03-08T06:36:08;27.30;;;13.02;;
40669;SDS011;26355;45.528;9.234;2023-03-08T06:38:41;27.92;;;13.82;;
40669;SDS011;26355;45.528;9.234;2023-03-08T06:41:08;22.05;;;11.45;;
40669;SDS011;26355;45.528;9.234;2023-03-08T06:43:35;28.33;;;12.00;;
40669;SDS011;26355;45.528;9.234;2023-03-08T06:46:05;29.50;;;12.52;;
40669;SDS011;26355;45.528;9.234;2023-03-08T06:48:34;34.88;;;14.02;;
40669;SDS011;26355;45.528;9.234;2023-03-08T06:51:00;28.35;;;13.13;;
40669;SDS011;26355;45.528;9.234;2023-03-08T06:53:26;26.15;;;10.50;;
40669;SDS011;26355;45.528;9.234;2023-03-08T06:55:52;24.50;;;11.13;;
40669;SDS011;26355;45.528;9.234;2023-03-08T06:58:18;24.40;;;11.32;;
40669;SDS011;26355;45.528;9.234;2023-03-08T07:00:44;26.73;;;13.07;;
40669;SDS011;26355;45.528;9.234;2023-03-08T07:03:10;22.85;;;10.40;;
40669;SDS011;26355;45.528;9.234;2023-03-08T07:05:36;28.63;;;11.27;;
40669;SDS011;26355;45.528;9.234;2023-03-08T07:08:02;21.17;;;10.13;;
40669;SDS011;26355;45.528;9.234;2023-03-08T07:10:28;27.15;;;11.75;;
40669;SDS011;26355;45.528;9.234;2023-03-08T07:12:54;24.38;;;11.48;;
40669;SDS011;26355;45.528;9.234;2023-03-08T07:17:54;23.55;;;11.15;;
40669;SDS011;26355;45.528;9.234;2023-03-08T07:20:23;24.08;;;11.95;;
40669;SDS011;26355;45.528;9.234;2023-03-08T07:22:49;24.88;;;12.15;;
40669;SDS011;26355;45.528;9.234;2023-03-08T07:25:17;23.90;;;11.30;;
40669;SDS011;26355;45.528;9.234;2023-03-08T07:27:43;24.73;;;11.82;;
40669;SDS011;26355;45.528;9.234;2023-03-08T07:30:10;29.05;;;12.15;;
40669;SDS011;26355;45.528;9.234;2023-03-08T07:32:38;23.33;;;11.48;;
40669;SDS011;26355;45.528;9.234;2023-03-08T07:35:04;29.45;;;14.30;;
40669;SDS011;26355;45.528;9.234;2023-03-08T07:37:31;25.87;;;12.37;;
40669;SDS011;26355;45.528;9.234;2023-03-08T07:39:57;23.40;;;11.65;;
40669;SDS011;26355;45.528;9.234;2023-03-08T07:42:22;25.25;;;11.10;;
40669;SDS011;26355;45.528;9.234;2023-03-08T07:44:48;22.15;;;11.25;;
40669;SDS011;26355;45.528;9.234;2023-03-08T07:47:14;25.48;;;11.57;;
40669;SDS011;26355;45.528;9.234;2023-03-08T07:49:39;25.08;;;11.50;;
40669;SDS011;26355;45.528;9.234;2023-03-08T07:52:05;25.40;;;11.90;;
40669;SDS011;26355;45.528;9.234;2023-03-08T07:54:31;25.27;;;12.00;;
40669;SDS011;26355;45.528;9.234;2023-03-08T07:56:56;25.00;;;12.30;;
40669;SDS011;26355;45.528;9.234;2023-03-08T07:59:22;29.45;;;12.98;;
40669;SDS011;26355;45.528;9.234;2023-03-08T08:01:48;28.58;;;13.05;;
40669;SDS011;26355;45.528;9.234;2023-03-08T08:04:14;28.10;;;13.82;;
40669;SDS011;26355;45.528;9.234;2023-03-08T08:06:40;29.23;;;14.40;;
40669;SDS011;26355;45.528;9.234;2023-03-08T08:09:06;33.10;;;15.75;;
40669;SDS011;26355;45.528;9.234;2023-03-08T08:11:33;33.42;;;14.77;;
40669;SDS011;26355;45.528;9.234;2023-03-08T08:13:59;29.95;;;13.98;;
40669;SDS011;26355;45.528;9.234;2023-03-08T08:16:25;27.27;;;13.48;;
40669;SDS011;26355;45.528;9.234;2023-03-08T08:18:51;25.55;;;13.38;;
40669;SDS011;26355;45.528;9.234;2023-03-08T08:21:18;27.75;;;13.35;;
40669;SDS011;26355;45.528;9.234;2023-03-08T08:23:44;26.90;;;13.48;;
40669;SDS011;26355;45.528;9.234;2023-03-08T08:26:17;25.80;;;13.48;;
40669;SDS011;26355;45.528;9.234;2023-03-08T08:28:45;28.42;;;13.20;;
40669;SDS011;26355;45.528;9.234;2023-03-08T08:31:14;28.50;;;13.73;;
40669;SDS011;26355;45.528;9.234;2023-03-08T08:33:41;25.10;;;13.18;;
40669;SDS011;26355;45.528;9.234;2023-03-08T08:36:08;24.25;;;13.25;;
40669;SDS011;26355;45.528;9.234;2023-03-08T08:38:37;26.55;;;12.93;;
40669;SDS011;26355;45.528;9.234;2023-03-08T08:41:04;24.98;;;13.48;;
40669;SDS011;26355;45.528;9.234;2023-03-08T08:43:32;25.52;;;13.23;;
40669;SDS011;26355;45.528;9.234;2023-03-08T08:45:59;27.00;;;11.80;;
40669;SDS011;26355;45.528;9.234;2023-03-08T08:48:25;25.13;;;13.40;;
40669;SDS011;26355;45.528;9.234;2023-03-08T08:50:51;26.05;;;13.00;;
40669;SDS011;26355;45.528;9.234;2023-03-08T08:53:18;27.30;;;13.85;;
40669;SDS011;26355;45.528;9.234;2023-03-08T08:55:44;24.95;;;12.45;;
40669;SDS011;26355;45.528;9.234;2023-03-08T08:58:10;29.17;;;13.57;;
40669;SDS011;26355;45.528;9.234;2023-03-08T09:00:36;26.85;;;13.13;;
40669;SDS011;26355;45.528;9.234;2023-03-08T09:03:02;28.23;;;13.43;;
40669;SDS011;26355;45.528;9.234;2023-03-08T09:05:28;25.42;;;12.57;;
40669;SDS011;26355;45.528;9.234;2023-03-08T09:07:56;26.42;;;12.68;;
40669;SDS011;26355;45.528;9.234;2023-03-08T09:12:48;26.15;;;11.68;;
40669;SDS011;26355;45.528;9.234;2023-03-08T09:15:14;26.98;;;12.98;;
40669;SDS011;26355;45.528;9.234;2023-03-08T09:17:40;25.65;;;13.00;;
40669;SDS011;26355;45.528;9.234;2023-03-08T09:20:05;25.58;;;13.73;;
40669;SDS011;26355;45.528;9.234;2023-03-08T09:22:35;28.58;;;13.32;;
40669;SDS011;26355;45.528;9.234;2023-03-08T09:25:01;26.40;;;13.32;;
40669;SDS011;26355;45.528;9.234;2023-03-08T09:27:27;26.83;;;13.70;;
40669;SDS011;26355;45.528;9.234;2023-03-08T09:29:53;27.23;;;15.32;;
40669;SDS011;26355;45.528;9.234;2023-03-08T09:32:18;28.52;;;14.25;;
40669;SDS011;26355;45.528;9.234;2023-03-08T09:34:44;26.17;;;14.18;;
40669;SDS011;26355;45.528;9.234;2023-03-08T09:37:10;27.45;;;14.07;;
40669;SDS011;26355;45.528;9.234;2023-03-08T09:39:36;29.13;;;14.20;;
40669;SDS011;26355;45.528;9.234;2023-03-08T09:42:04;25.85;;;12.70;;
40669;SDS011;26355;45.528;9.234;2023-03-08T09:47:31;24.50;;;12.55;;
40669;SDS011;26355;45.528;9.234;2023-03-08T09:55:04;24.73;;;13.00;;
40669;SDS011;26355;45.528;9.234;2023-03-08T09:57:39;26.75;;;13.68;;
40669;SDS011;26355;45.528;9.234;2023-03-08T10:00:15;28.95;;;14.15;;
40669;SDS011;26355;45.528;9.234;2023-03-08T10:02:52;28.48;;;14.23;;
40669;SDS011;26355;45.528;9.234;2023-03-08T10:08:25;26.52;;;12.77;;
40669;SDS011;26355;45.528;9.234;2023-03-08T10:10:57;26.33;;;12.38;;
40669;SDS011;26355;45.528;9.234;2023-03-08T10:16:03;26.63;;;12.70;;
40669;SDS011;26355;45.528;9.234;2023-03-08T10:18:57;26.08;;;12.40;;
40669;SDS011;26355;45.528;9.234;2023-03-08T10:21:35;25.88;;;11.20;;
40669;SDS011;26355;45.528;9.234;2023-03-08T10:26:31;25.50;;;11.93;;
40669;SDS011;26355;45.528;9.234;2023-03-08T10:28:57;24.30;;;11.32;;
40669;SDS011;26355;45.528;9.234;2023-03-08T10:31:27;24.33;;;11.80;;
40669;SDS011;26355;45.528;9.234;2023-03-08T10:37:02;25.38;;;10.98;;
40669;SDS011;26355;45.528;9.234;2023-03-08T10:39:30;22.52;;;11.18;;
40669;SDS011;26355;45.528;9.234;2023-03-08T10:41:56;25.88;;;11.43;;
40669;SDS011;26355;45.528;9.234;2023-03-08T10:47:23;28.25;;;13.40;;
40669;SDS011;26355;45.528;9.234;2023-03-08T10:52:34;24.27;;;13.68;;
40669;SDS011;26355;45.528;9.234;2023-03-08T10:55:05;26.67;;;13.00;;
40669;SDS011;26355;45.528;9.234;2023-03-08T10:57:56;30.58;;;12.15;;
40669;SDS011;26355;45.528;9.234;2023-03-08T11:07:57;24.27;;;11.15;;
40669;SDS011;26355;45.528;9.234;2023-03-08T11:10:24;23.45;;;10.18;;
40669;SDS011;26355;45.528;9.234;2023-03-08T11:15:30;22.85;;;9.18;;
40669;SDS011;26355;45.528;9.234;2023-03-08T11:18:04;20.67;;;8.88;;
40669;SDS011;26355;45.528;9.234;2023-03-08T11:20:54;20.38;;;8.15;;
40669;SDS011;26355;45.528;9.234;2023-03-08T11:23:32;18.17;;;7.53;;
40669;SDS011;26355;45.528;9.234;2023-03-08T11:36:31;21.27;;;7.82;;
40669;SDS011;26355;45.528;9.234;2023-03-08T11:39:05;20.67;;;7.70;;
40669;SDS011;26355;45.528;9.234;2023-03-08T11:41:52;19.73;;;8.40;;
40669;SDS011;26355;45.528;9.234;2023-03-08T11:44:38;19.48;;;8.32;;
40669;SDS011;26355;45.528;9.234;2023-03-08T11:50:41;20.58;;;8.80;;
40669;SDS011;26355;45.528;9.234;2023-03-08T12:01:08;20.85;;;8.68;;
40669;SDS011;26355;45.528;9.234;2023-03-08T12:03:44;20.50;;;8.48;;
40669;SDS011;26355;45.528;9.234;2023-03-08T12:06:17;21.80;;;8.25;;
40669;SDS011;26355;45.528;9.234;2023-03-08T12:09:00;20.83;;;8.43;;
40669;SDS011;26355;45.528;9.234;2023-03-08T12:11:32;22.05;;;8.02;;
40669;SDS011;26355;45.528;9.234;2023-03-08T12:14:16;18.73;;;8.52;;
40669;SDS011;26355;45.528;9.234;2023-03-08T12:27:29;20.83;;;8.82;;
40669;SDS011;26355;45.528;9.234;2023-03-08T12:30:10;19.85;;;8.88;;
40669;SDS011;26355;45.528;9.234;2023-03-08T12:32:42;20.70;;;9.32;;
40669;SDS011;26355;45.528;9.234;2023-03-08T12:37:57;23.58;;;8.55;;
40669;SDS011;26355;45.528;9.234;2023-03-08T12:40:42;19.35;;;8.57;;
40669;SDS011;26355;45.528;9.234;2023-03-08T12:43:11;20.17;;;7.70;;
40669;SDS011;26355;45.528;9.234;2023-03-08T12:45:39;18.90;;;8.55;;
40669;SDS011;26355;45.528;9.234;2023-03-08T12:48:12;20.70;;;9.30;;
40669;SDS011;26355;45.528;9.234;2023-03-08T12:51:29;26.02;;;9.23;;
40669;SDS011;26355;45.528;9.234;2023-03-08T12:53:39;19.02;;;7.40;;
40669;SDS011;26355;45.528;9.234;2023-03-08T12:58:35;20.05;;;7.57;;
40669;SDS011;26355;45.528;9.234;2023-03-08T13:01:05;21.90;;;8.52;;
40669;SDS011;26355;45.528;9.234;2023-03-08T13:03:46;20.98;;;9.75;;
40669;SDS011;26355;45.528;9.234;2023-03-08T13:08:50;21.55;;;7.82;;
40669;SDS011;26355;45.528;9.234;2023-03-08T13:11:19;19.30;;;9.07;;
40669;SDS011;26355;45.528;9.234;2023-03-08T13:13:51;20.67;;;8.63;;
40669;SDS011;26355;45.528;9.234;2023-03-08T13:19:05;22.00;;;7.90;;
40669;SDS011;26355;45.528;9.234;2023-03-08T13:21:37;21.63;;;8.07;;
40669;SDS011;26355;45.528;9.234;2023-03-08T13:24:12;21.23;;;7.50;;
40669;SDS011;26355;45.528;9.234;2023-03-08T13:29:34;18.85;;;7.85;;
40669;SDS011;26355;45.528;9.234;2023-03-08T13:32:04;20.92;;;9.18;;
40669;SDS011;26355;45.528;9.234;2023-03-08T13:34:35;21.10;;;9.52;;
40669;SDS011;26355;45.528;9.234;2023-03-08T13:37:02;23.00;;;8.85;;
40669;SDS011;26355;45.528;9.234;2023-03-08T13:39:31;18.63;;;6.45;;
40669;SDS011;26355;45.528;9.234;2023-03-08T13:42:06;15.70;;;5.07;;
40669;SDS011;26355;45.528;9.234;2023-03-08T13:44:34;18.33;;;5.93;;
40669;SDS011;26355;45.528;9.234;2023-03-08T13:47:01;17.08;;;6.03;;
40669;SDS011;26355;45.528;9.234;2023-03-08T13:49:40;16.77;;;5.63;;
40669;SDS011;26355;45.528;9.234;2023-03-08T13:52:18;16.80;;;5.88;;
40669;SDS011;26355;45.528;9.234;2023-03-08T13:54:53;17.05;;;6.10;;
40669;SDS011;26355;45.528;9.234;2023-03-08T13:57:22;18.65;;;5.90;;
40669;SDS011;26355;45.528;9.234;2023-03-08T13:59:49;19.98;;;6.28;;
40669;SDS011;26355;45.528;9.234;2023-03-08T14:02:21;18.80;;;6.60;;
40669;SDS011;26355;45.528;9.234;2023-03-08T14:04:52;16.67;;;6.40;;
40669;SDS011;26355;45.528;9.234;2023-03-08T14:07:25;17.73;;;6.28;;
40669;SDS011;26355;45.528;9.234;2023-03-08T14:09:53;16.65;;;5.80;;
40669;SDS011;26355;45.528;9.234;2023-03-08T14:12:21;18.80;;;6.67;;
40669;SDS011;26355;45.528;9.234;2023-03-08T14:14:50;17.90;;;5.75;;
40669;SDS011;26355;45.528;9.234;2023-03-08T14:17:23;18.42;;;6.35;;
40669;SDS011;26355;45.528;9.234;2023-03-08T14:19:54;17.67;;;6.15;;
40669;SDS011;26355;45.528;9.234;2023-03-08T14:22:23;17.88;;;6.13;;
40669;SDS011;26355;45.528;9.234;2023-03-08T14:24:57;17.73;;;6.93;;
40669;SDS011;26355;45.528;9.234;2023-03-08T14:27:35;20.83;;;5.97;;
40669;SDS011;26355;45.528;9.234;2023-03-08T14:30:13;24.98;;;6.85;;
40669;SDS011;26355;45.528;9.234;2023-03-08T14:32:53;19.15;;;6.35;;
40669;SDS011;26355;45.528;9.234;2023-03-08T14:35:33;17.65;;;6.00;;
40669;SDS011;26355;45.528;9.234;2023-03-08T14:38:11;18.58;;;6.90;;
40669;SDS011;26355;45.528;9.234;2023-03-08T14:40:46;17.50;;;6.40;;
40669;SDS011;26355;45.528;9.234;2023-03-08T14:43:21;19.33;;;7.50;;
40669;SDS011;26355;45.528;9.234;2023-03-08T14:45:56;17.17;;;6.20;;
40669;SDS011;26355;45.528;9.234;2023-03-08T14:48:28;19.63;;;6.68;;
40669;SDS011;26355;45.528;9.234;2023-03-08T14:51:03;19.67;;;6.25;;
40669;SDS011;26355;45.528;9.234;2023-03-08T14:53:30;20.55;;;6.47;;
40669;SDS011;26355;45.528;9.234;2023-03-08T14:56:02;19.45;;;6.13;;
40669;SDS011;26355;45.528;9.234;2023-03-08T14:58:37;18.30;;;6.13;;
40669;SDS011;26355;45.528;9.234;2023-03-08T15:01:05;18.58;;;6.72;;
40669;SDS011;26355;45.528;9.234;2023-03-08T15:03:30;17.98;;;6.32;;
40669;SDS011;26355;45.528;9.234;2023-03-08T15:05:57;19.55;;;6.25;;
40669;SDS011;26355;45.528;9.234;2023-03-08T15:08:25;17.77;;;7.00;;
40669;SDS011;26355;45.528;9.234;2023-03-08T15:10:51;18.02;;;6.43;;
40669;SDS011;26355;45.528;9.234;2023-03-08T15:13:19;20.27;;;6.95;;
40669;SDS011;26355;45.528;9.234;2023-03-08T15:15:46;17.83;;;6.30;;
40669;SDS011;26355;45.528;9.234;2023-03-08T15:18:12;17.48;;;6.07;;
40669;SDS011;26355;45.528;9.234;2023-03-08T15:20:39;17.02;;;6.82;;
40669;SDS011;26355;45.528;9.234;2023-03-08T15:23:13;16.90;;;5.93;;
40669;SDS011;26355;45.528;9.234;2023-03-08T15:25:48;22.15;;;7.18;;
40669;SDS011;26355;45.528;9.234;2023-03-08T15:28:14;19.48;;;6.75;;
40669;SDS011;26355;45.528;9.234;2023-03-08T15:30:41;20.10;;;6.40;;
40669;SDS011;26355;45.528;9.234;2023-03-08T15:33:07;19.90;;;6.45;;
40669;SDS011;26355;45.528;9.234;2023-03-08T15:35:33;19.52;;;6.57;;
40669;SDS011;26355;45.528;9.234;2023-03-08T15:38:00;19.33;;;6.35;;
40669;SDS011;26355;45.528;9.234;2023-03-08T15:40:27;19.15;;;6.78;;
40669;SDS011;26355;45.528;9.234;2023-03-08T15:42:55;22.27;;;7.30;;
40669;SDS011;26355;45.528;9.234;2023-03-08T15:45:20;16.05;;;5.90;;
40669;SDS011;26355;45.528;9.234;2023-03-08T15:47:56;18.92;;;6.90;;
40669;SDS011;26355;45.528;9.234;2023-03-08T15:50:27;16.52;;;6.20;;
40669;SDS011;26355;45.528;9.234;2023-03-08T15:52:53;16.90;;;6.40;;
40669;SDS011;26355;45.528;9.234;2023-03-08T15:55:20;20.25;;;6.32;;
40669;SDS011;26355;45.528;9.234;2023-03-08T15:57:46;19.70;;;6.45;;
40669;SDS011;26355;45.528;9.234;2023-03-08T16:00:13;18.33;;;6.00;;
40669;SDS011;26355;45.528;9.234;2023-03-08T16:02:39;18.08;;;6.72;;
40669;SDS011;26355;45.528;9.234;2023-03-08T16:05:06;22.10;;;7.97;;
40669;SDS011;26355;45.528;9.234;2023-03-08T16:07:33;16.95;;;6.22;;